Time;durP1;ratioP1;P1;durP2;ratioP2;P2;SDS_P1;SDS_P2;PMS_P1;PMS_P2;Temp;Humidity;BMP_temperature;BMP_pressure;BME280_temperature;BME280_humidity;BME280_pressure;Samples;Min_cycle;Max_cycle;Signal;HPM_P1;HPM_P2
2022/04/19 00:01:59;;;;;;;;;;;;;;;;;;4424962;32;20021;-82
2022/04/19 00:04:24;;;;;;;15.95;12.82;;;;;;;;;;4437215;32;19932;-83
2022/04/19 00:06:49;;;;;;;;;;;;;;;;;;4437755;32;20048;-82
2022/04/19 00:09:14;;;;;;;17.62;13.50;;;;;;;;;;4436924;32;19959;-82
2022/04/19 00:11:39;;;;;;;;;;;;;;;;;;4441091;32;20021;-83
2022/04/19 00:14:07;;;;;;;19.13;14.10;;;;;;;;;;4442190;32;20079;-81
2022/04/19 00:16:33;;;;;;;20.85;15.45;;;;;;;;;;4437874;32;20475;-82
2022/04/19 00:18:58;;;;;;;;;;;;;;;;;;4438646;32;20074;-82
2022/04/19 00:21:23;;;;;;;20.90;14.90;;;;;;;;;;4436899;32;19940;-82
2022/04/19 00:23:49;;;;;;;;;;;;;;;;;;4436732;32;20113;-80
2022/04/19 00:26:15;;;;;;;24.60;15.43;;;;;;;;;;4423422;32;19952;-81
2022/04/19 00:28:41;;;;;;;;;;;;;;;;;;4437143;32;20415;-81
2022/04/19 00:31:07;;;;;;;19.52;14.30;;;;;;;;;;4437297;32;19975;-82
2022/04/19 00:33:32;;;;;;;;;;;;;;;;;;4436802;32;20061;-81
2022/04/19 00:35:57;;;;;;;22.02;16.65;;;;;;;;;;4436605;32;20296;-82
2022/04/19 00:38:22;;;;;;;;;;;;;;;;;;4443925;26;20042;-72
2022/04/19 00:40:48;;;;;;;20.15;15.50;;;;;;;;;;4397836;32;19941;-71
2022/04/19 00:43:13;;;;;;;;;;;;;;;;;;4405715;32;20124;-71
2022/04/19 00:45:38;;;;;;;18.45;14.35;;;;;;;;;;4408711;32;20006;-71
2022/04/19 00:48:03;;;;;;;;;;;;;;;;;;4395213;32;20586;-72
2022/04/19 00:50:28;;;;;;;21.30;15.35;;;;;;;;;;4406765;32;19950;-72
2022/04/19 00:52:54;;;;;;;;;;;;;;;;;;4393278;32;20436;-72
2022/04/19 00:55:19;;;;;;;23.30;16.62;;;;;;;;;;4406081;32;19964;-71
2022/04/19 00:57:46;;;;;;;;;;;;;;;;;;4408434;32;20555;-71
2022/04/19 01:00:12;;;;;;;21.17;16.07;;;;;;;;;;4405007;32;19957;-71
2022/04/19 01:02:38;;;;;;;24.25;16.87;;;;;;;;;;4405952;32;20023;-72
2022/04/19 01:05:04;;;;;;;;;;;;;;;;;;4407793;32;20053;-71
2022/04/19 01:07:30;;;;;;;24.35;18.77;;;;;;;;;;4392255;32;20366;-72
2022/04/19 01:09:55;;;;;;;;;;;;;;;;;;4391058;32;20079;-72
2022/04/19 01:15:05;;;;;;;22.55;17.48;;;;;;;;;;4406179;32;20044;-71
2022/04/19 01:17:32;;;;;;;23.27;18.02;;;;;;;;;;4391401;32;20030;-72
2022/04/19 01:19:57;;;;;;;22.30;18.35;;;;;;;;;;4391396;32;20371;-72
2022/04/19 01:22:24;;;;;;;;;;;;;;;;;;4407834;32;20045;-71
2022/04/19 01:24:49;;;;;;;24.23;19.40;;;;;;;;;;4377999;32;20404;-72
2022/04/19 01:27:14;;;;;;;;;;;;;;;;;;4390739;32;20035;-71
2022/04/19 01:29:39;;;;;;;24.23;18.58;;;;;;;;;;4390735;32;19938;-73
2022/04/19 01:32:04;;;;;;;;;;;;;;;;;;4391642;32;20023;-71
2022/04/19 01:34:30;;;;;;;28.00;20.27;;;;;;;;;;4388730;32;19947;-71
2022/04/19 01:36:55;;;;;;;;;;;;;;;;;;4390636;32;20137;-71
2022/04/19 01:42:05;;;;;;;29.00;20.12;;;;;;;;;;4406787;32;20048;-71
2022/04/19 01:44:33;;;;;;;29.08;21.83;;;;;;;;;;4405152;32;20061;-71
2022/04/19 01:46:59;;;;;;;28.25;23.10;;;;;;;;;;4391828;32;20088;-72
2022/04/19 01:49:24;;;;;;;;;;;;;;;;;;4406600;32;20038;-73
2022/04/19 01:51:49;;;;;;;28.23;20.65;;;;;;;;;;4404772;32;19969;-72
2022/04/19 01:54:15;;;;;;;;;;;;;;;;;;4405264;32;20330;-72
2022/04/19 01:56:40;;;;;;;28.92;22.13;;;;;;;;;;4392707;32;19937;-72
2022/04/19 01:59:06;;;;;;;;;;;;;;;;;;4404925;32;20069;-72
2022/04/19 02:01:31;;;;;;;34.17;23.65;;;;;;;;;;4406752;32;19952;-72
2022/04/19 02:03:57;;;;;;;;;;;;;;;;;;4407160;32;20030;-73
2022/04/19 02:06:22;;;;;;;28.62;21.48;;;;;;;;;;4391518;32;20339;-72
2022/04/19 02:08:47;;;;;;;;;;;;;;;;;;4395936;32;20105;-72
2022/04/19 02:11:12;;;;;;;29.52;22.75;;;;;;;;;;4395547;32;20307;-71
2022/04/19 02:13:37;;;;;;;;;;;;;;;;;;4395074;32;20030;-72
2022/04/19 02:16:02;;;;;;;29.05;23.00;;;;;;;;;;4395549;32;19964;-71
2022/04/19 02:18:27;;;;;;;;;;;;;;;;;;4408479;32;20058;-71
2022/04/19 02:20:53;;;;;;;35.13;25.08;;;;;;;;;;4407581;32;20335;-72
2022/04/19 02:23:18;;;;;;;;;;;;;;;;;;4408047;32;20049;-72
2022/04/19 02:25:43;;;;;;;30.70;24.12;;;;;;;;;;4408173;32;19937;-72
2022/04/19 02:28:10;;;;;;;;;;;;;;;;;;4395037;32;20084;-73
2022/04/19 02:30:35;;;;;;;32.05;23.92;;;;;;;;;;4408336;32;19971;-72
2022/04/19 02:33:02;;;;;;;;;;;;;;;;;;4394155;32;20411;-73
2022/04/19 02:35:28;;;;;;;27.23;20.25;;;;;;;;;;4397122;32;19949;-72
2022/04/19 02:37:54;;;;;;;26.95;19.40;;;;;;;;;;4391808;32;20079;-72
2022/04/19 02:40:19;;;;;;;;;;;;;;;;;;4392375;32;20018;-71
2022/04/19 02:42:45;;;;;;;27.17;19.33;;;;;;;;;;4392193;32;19968;-72
2022/04/19 02:45:11;;;;;;;;;;;;;;;;;;4392818;32;20019;-72
2022/04/19 02:47:37;;;;;;;25.67;19.42;;;;;;;;;;4394035;32;19985;-72
2022/04/19 02:50:02;;;;;;;25.52;21.20;;;;;;;;;;4408539;32;20035;-73
2022/04/19 02:52:27;;;;;;;;;;;;;;;;;;4409647;32;20022;-72
2022/04/19 02:54:53;;;;;;;25.08;20.05;;;;;;;;;;4408011;32;19974;-71
2022/04/19 02:57:18;;;;;;;;;;;;;;;;;;4407735;32;20153;-72
2022/04/19 02:59:43;;;;;;;26.55;19.95;;;;;;;;;;4394456;32;19967;-71
2022/04/19 03:02:08;;;;;;;;;;;;;;;;;;4393352;32;20440;-73
2022/04/19 03:04:34;;;;;;;23.73;18.60;;;;;;;;;;4406525;32;20467;-72
2022/04/19 03:06:59;;;;;;;;;;;;;;;;;;4409059;32;20321;-71
2022/04/19 03:09:24;;;;;;;24.30;18.62;;;;;;;;;;4393897;32;20041;-72
2022/04/19 03:11:49;;;;;;;;;;;;;;;;;;4394636;32;20109;-71
2022/04/19 03:14:14;;;;;;;27.52;21.02;;;;;;;;;;4394297;32;19937;-71
2022/04/19 03:16:39;;;;;;;;;;;;;;;;;;4407282;32;20026;-72
2022/04/19 03:19:04;;;;;;;23.62;19.62;;;;;;;;;;4407862;32;19941;-73
2022/04/19 03:21:30;;;;;;;;;;;;;;;;;;4408489;32;20027;-71
2022/04/19 03:29:23;;;;;;;23.65;19.52;;;;;;;;;;4407558;32;20071;-70
2022/04/19 03:31:48;;;;;;;;;;;;;;;;;;4395560;32;20046;-72
2022/04/19 03:34:13;;;;;;;25.02;20.40;;;;;;;;;;4407436;32;20319;-71
2022/04/19 03:36:38;;;;;;;;;;;;;;;;;;4407719;32;20080;-71
2022/04/19 03:39:03;;;;;;;23.98;17.42;;;;;;;;;;4406746;32;19947;-71
2022/04/19 03:41:28;;;;;;;;;;;;;;;;;;4408173;32;20491;-71
2022/04/19 03:43:54;;;;;;;22.87;17.33;;;;;;;;;;4392382;32;19949;-71
2022/04/19 03:46:19;;;;;;;;;;;;;;;;;;4392855;32;20141;-71
2022/04/19 03:48:44;;;;;;;23.50;17.58;;;;;;;;;;4407360;32;19941;-71
2022/04/19 03:51:09;;;;;;;;;;;;;;;;;;4406546;32;20378;-71
2022/04/19 03:53:34;;;;;;;27.17;17.40;;;;;;;;;;4392813;32;19937;-71
2022/04/19 03:55:59;;;;;;;;;;;;;;;;;;4408629;32;20052;-71
2022/04/19 03:58:26;;;;;;;21.65;16.05;;;;;;;;;;4406186;32;19934;-72
2022/04/19 04:00:52;;;;;;;23.35;15.57;;;;;;;;;;4407734;32;20160;-72
2022/04/19 04:03:17;;;;;;;;;;;;;;;;;;4407974;32;20026;-72
2022/04/19 04:05:42;;;;;;;18.55;14.00;;;;;;;;;;4407338;32;19971;-71
2022/04/19 04:08:07;;;;;;;;;;;;;;;;;;4406526;32;20026;-72
2022/04/19 04:10:33;;;;;;;24.35;15.48;;;;;;;;;;4393026;32;19996;-72
2022/04/19 04:12:59;;;;;;;;;;;;;;;;;;4406463;32;20050;-71
2022/04/19 04:15:25;;;;;;;22.50;15.27;;;;;;;;;;4406211;32;20354;-71
2022/04/19 04:17:50;;;;;;;;;;;;;;;;;;4406296;32;20026;-72
2022/04/19 04:20:15;;;;;;;20.30;15.32;;;;;;;;;;4406872;32;19956;-72
2022/04/19 04:22:40;;;;;;;;;;;;;;;;;;4407241;32;20118;-72
2022/04/19 04:25:05;;;;;;;20.35;15.18;;;;;;;;;;4391752;32;19942;-73
2022/04/19 04:27:30;;;;;;;;;;;;;;;;;;4406355;32;20469;-72
2022/04/19 04:29:56;;;;;;;23.08;15.95;;;;;;;;;;4405887;32;20205;-72
2022/04/19 04:32:21;;;;;;;;;;;;;;;;;;4392191;32;20565;-72
2022/04/19 04:34:46;;;;;;;17.95;14.23;;;;;;;;;;4393532;32;19937;-72
2022/04/19 04:37:11;;;;;;;;;;;;;;;;;;4392295;32;20068;-71
2022/04/19 04:39:37;;;;;;;17.37;13.43;;;;;;;;;;4391976;32;20266;-72
2022/04/19 04:42:02;;;;;;;;;;;;;;;;;;4392017;32;20022;-70
2022/04/19 04:44:27;;;;;;;18.25;13.50;;;;;;;;;;4391787;32;19995;-72
2022/04/19 04:49:36;;;;;;;21.20;14.52;;;;;;;;;;4407417;32;19959;-72
2022/04/19 04:52:01;;;;;;;;;;;;;;;;;;4406879;32;20030;-71
2022/04/19 04:54:26;;;;;;;19.12;14.18;;;;;;;;;;4405757;32;20257;-73
2022/04/19 04:56:52;;;;;;;;;;;;;;;;;;4406814;32;20122;-72
2022/04/19 04:59:17;;;;;;;21.70;13.93;;;;;;;;;;4392347;32;19940;-72
2022/04/19 05:01:42;;;;;;;;;;;;;;;;;;4391402;32;20113;-72
2022/04/19 05:04:07;;;;;;;19.05;13.30;;;;;;;;;;4405212;32;20308;-72
2022/04/19 05:06:33;;;;;;;;;;;;;;;;;;4406755;32;20052;-72
2022/04/19 05:08:58;;;;;;;18.80;12.48;;;;;;;;;;4407001;32;19995;-71
2022/04/19 05:11:23;;;;;;;19.83;13.50;;;;;;;;;;4391396;32;20472;-72
2022/04/19 05:13:48;;;;;;;;;;;;;;;;;;4405687;32;20575;-72
2022/04/19 05:16:13;;;;;;;19.83;12.63;;;;;;;;;;4406519;32;19953;-71
2022/04/19 05:18:38;;;;;;;;;;;;;;;;;;4405651;32;20076;-72
2022/04/19 05:21:05;;;;;;;21.02;13.55;;;;;;;;;;4390924;32;20078;-71
2022/04/19 05:23:30;;;;;;;20.02;12.50;;;;;;;;;;4391207;32;20021;-72
2022/04/19 05:25:55;;;;;;;;;;;;;;;;;;4391729;32;20080;-72
2022/04/19 05:28:20;;;;;;;22.20;12.20;;;;;;;;;;4406732;32;20284;-71
2022/04/19 05:30:46;;;;;;;;;;;;;;;;;;4407122;32;20030;-71
2022/04/19 05:33:11;;;;;;;19.92;12.20;;;;;;;;;;4404771;32;19967;-71
2022/04/19 05:35:38;;;;;;;;;;;;;;;;;;4404242;32;20092;-71
2022/04/19 05:38:03;;;;;;;18.02;12.50;;;;;;;;;;4399163;32;19952;-71
2022/04/19 05:40:28;;;;;;;;;;;;;;;;;;4405710;32;20057;-71
2022/04/19 05:42:53;;;;;;;15.45;11.20;;;;;;;;;;4404333;32;19989;-71
2022/04/19 05:45:18;;;;;;;;;;;;;;;;;;4403243;32;20137;-71
2022/04/19 05:47:43;;;;;;;17.00;12.48;;;;;;;;;;4404806;32;19945;-72
2022/04/19 05:50:08;;;;;;;;;;;;;;;;;;4391221;32;20058;-72
2022/04/19 05:52:34;;;;;;;20.17;11.82;;;;;;;;;;4404699;32;20329;-72
2022/04/19 05:54:59;;;;;;;;;;;;;;;;;;4404776;32;20089;-71
2022/04/19 05:57:24;;;;;;;18.67;12.00;;;;;;;;;;4404465;32;19952;-72
2022/04/19 05:59:49;;;;;;;;;;;;;;;;;;4405682;32;20068;-73
2022/04/19 06:04:59;;;;;;;19.17;11.45;;;;;;;;;;4404259;32;20391;-72
2022/04/19 06:07:26;;;;;;;17.12;11.15;;;;;;;;;;4403442;32;20076;-71
2022/04/19 06:09:51;;;;;;;15.75;10.68;;;;;;;;;;4404906;32;20171;-72
2022/04/19 06:12:16;;;;;;;;;;;;;;;;;;4404568;32;20397;-72
2022/04/19 06:14:42;;;;;;;18.58;11.52;;;;;;;;;;4404570;32;20344;-72
2022/04/19 06:17:07;;;;;;;;;;;;;;;;;;4406276;32;20102;-71
2022/04/19 06:19:32;;;;;;;20.55;12.13;;;;;;;;;;4404130;32;19989;-70
2022/04/19 06:21:57;;;;;;;;;;;;;;;;;;4404886;32;20217;-71
2022/04/19 06:24:23;;;;;;;15.95;11.75;;;;;;;;;;4404027;32;19933;-70
2022/04/19 06:26:48;;;;;;;;;;;;;;;;;;4404327;32;20149;-72
2022/04/19 06:29:13;;;;;;;21.75;11.98;;;;;;;;;;4404015;32;20019;-71
2022/04/19 06:31:40;;;;;;;;;;;;;;;;;;4401653;32;20062;-72
2022/04/19 06:34:05;;;;;;;16.33;11.00;;;;;;;;;;4389664;32;19941;-68
2022/04/19 06:36:30;;;;;;;;;;;;;;;;;;4403934;32;20446;-70
2022/04/19 06:38:55;;;;;;;16.20;11.95;;;;;;;;;;4390395;32;19989;-70
2022/04/19 06:41:21;;;;;;;;;;;;;;;;;;4390553;32;20156;-70
2022/04/19 06:43:46;;;;;;;22.50;11.93;;;;;;;;;;4405317;32;19937;-71
2022/04/19 06:46:13;;;;;;;;;;;;;;;;;;4390418;32;20106;-70
2022/04/19 06:48:38;;;;;;;21.27;11.32;;;;;;;;;;4383665;32;20047;-70
2022/04/19 06:51:04;;;;;;;;;;;;;;;;;;4395472;32;20031;-69
2022/04/19 06:53:30;;;;;;;23.35;12.45;;;;;;;;;;4376327;32;20010;-71
2022/04/19 06:55:55;;;;;;;;;;;;;;;;;;4388087;32;20457;-74
2022/04/19 06:58:21;;;;;;;19.83;11.68;;;;;;;;;;4402145;32;19937;-72
2022/04/19 07:00:46;;;;;;;19.77;11.82;;;;;;;;;;4402817;32;20030;-73
2022/04/19 07:03:12;;;;;;;;;;;;;;;;;;4393276;32;20064;-71
2022/04/19 07:05:37;;;;;;;20.77;13.20;;;;;;;;;;4407306;32;19937;-72
2022/04/19 07:08:03;;;;;;;;;;;;;;;;;;4406179;32;20168;-72
2022/04/19 07:10:28;;;;;;;18.35;11.98;;;;;;;;;;4406622;32;19949;-73
2022/04/19 07:12:54;;;;;;;18.20;11.07;;;;;;;;;;4393687;32;20087;-73
2022/04/19 07:15:19;;;;;;;;;;;;;;;;;;4407605;32;20456;-72
2022/04/19 07:17:44;;;;;;;16.62;11.98;;;;;;;;;;4408183;32;19952;-73
2022/04/19 07:28:21;;;;;;;21.45;12.50;;;;;;;;;;4407665;32;20385;-73
2022/04/19 07:30:47;;;;;;;18.48;11.23;;;;;;;;;;4408627;32;20026;-72
2022/04/19 07:33:12;;;;;;;19.65;11.88;;;;;;;;;;4408347;32;20022;-73
2022/04/19 07:35:38;;;;;;;15.77;11.63;;;;;;;;;;4406688;32;20394;-72
2022/04/19 07:38:03;;;;;;;;;;;;;;;;;;4406716;32;20030;-75
2022/04/19 07:40:29;;;;;;;16.15;11.18;;;;;;;;;;4408976;32;19989;-75
2022/04/19 07:42:54;;;;;;;18.60;11.30;;;;;;;;;;4396525;32;20073;-74
2022/04/19 07:45:20;;;;;;;14.77;10.55;;;;;;;;;;4391484;32;20428;-74
2022/04/19 07:47:45;;;;;;;;;;;;;;;;;;4405911;32;20026;-75
2022/04/19 07:50:10;;;;;;;14.48;10.85;;;;;;;;;;4406378;32;20319;-74
2022/04/19 07:52:35;;;;;;;17.42;10.15;;;;;;;;;;4409118;32;20031;-73
2022/04/19 07:55:01;;;;;;;15.82;10.18;;;;;;;;;;4406445;32;20082;-73
2022/04/19 07:57:26;;;;;;;14.77;9.85;;;;;;;;;;4405959;32;20018;-74
2022/04/19 07:59:51;;;;;;;;;;;;;;;;;;4406604;32;20048;-73
2022/04/19 08:02:16;;;;;;;20.42;11.07;;;;;;;;;;4391132;32;20408;-74
2022/04/19 08:04:41;;;;;;;14.27;9.43;;;;;;;;;;4399156;32;20069;-75
2022/04/19 08:07:06;;;;;;;;;;;;;;;;;;4407631;32;20190;-74
2022/04/19 08:09:32;;;;;;;15.60;9.77;;;;;;;;;;4406461;32;19984;-74
2022/04/19 08:11:57;;;;;;;17.20;10.52;;;;;;;;;;4407630;32;20075;-75
2022/04/19 08:14:22;;;;;;;14.80;9.93;;;;;;;;;;4377466;32;20039;-74
2022/04/19 08:16:47;;;;;;;;;;;;;;;;;;4379043;32;20119;-74
2022/04/19 08:19:12;;;;;;;15.70;10.68;;;;;;;;;;4388389;32;19942;-73
2022/04/19 08:21:37;;;;;;;14.60;9.55;;;;;;;;;;4391289;32;20420;-73
2022/04/19 08:24:03;;;;;;;;;;;;;;;;;;4407172;32;20144;-73
2022/04/19 08:26:28;;;;;;;15.70;10.05;;;;;;;;;;4404535;32;19942;-74
2022/04/19 08:28:53;;;;;;;16.27;9.95;;;;;;;;;;4391469;32;20065;-75
2022/04/19 08:31:18;;;;;;;;;;;;;;;;;;4404689;32;20161;-73
2022/04/19 08:33:43;;;;;;;13.85;10.15;;;;;;;;;;4406770;32;19948;-73
2022/04/19 08:36:09;;;;;;;16.27;10.27;;;;;;;;;;4393439;32;20061;-73
2022/04/19 08:38:34;;;;;;;17.70;9.57;;;;;;;;;;4389201;32;20345;-73
2022/04/19 08:41:00;;;;;;;13.62;9.38;;;;;;;;;;4403940;32;20035;-74
2022/04/19 08:43:25;;;;;;;13.00;9.25;;;;;;;;;;4392577;32;20367;-74
2022/04/19 08:45:51;;;;;;;11.27;8.55;;;;;;;;;;4392911;32;20035;-74
2022/04/19 08:48:17;;;;;;;16.52;8.57;;;;;;;;;;4388287;32;20225;-73
2022/04/19 08:50:46;;;;;;;12.70;7.70;;;;;;;;;;4383681;32;20065;-73
2022/04/19 08:58:39;;;;;;;12.82;7.50;;;;;;;;;;4406399;32;20138;-73
2022/04/19 09:01:05;;;;;;;11.07;7.20;;;;;;;;;;4392915;32;20042;-74
2022/04/19 09:03:30;;;;;;;10.95;7.57;;;;;;;;;;4392263;32;20133;-74
2022/04/19 09:05:56;;;;;;;8.05;5.20;;;;;;;;;;4392838;32;20038;-74
2022/04/19 09:08:22;;;;;;;7.53;5.30;;;;;;;;;;4405998;32;20042;-74
2022/04/19 09:10:47;;;;;;;16.12;5.68;;;;;;;;;;4406766;32;20034;-74
2022/04/19 09:13:18;;;;;;;8.13;6.35;;;;;;;;;;4405756;32;20045;-74
2022/04/19 09:15:44;;;;;;;7.75;5.30;;;;;;;;;;4404533;32;20372;-74
2022/04/19 09:18:33;;;;;;;11.02;5.30;;;;;;;;;;4405003;32;20384;-73
2022/04/19 09:20:59;;;;;;;11.45;5.62;;;;;;;;;;4405278;32;20026;-73
2022/04/19 09:23:25;;;;;;;8.57;5.22;;;;;;;;;;4392590;32;20072;-73
2022/04/19 09:25:55;;;;;;;12.55;5.97;;;;;;;;;;4392249;32;20042;-74
2022/04/19 09:28:21;;;;;;;14.52;6.47;;;;;;;;;;4406884;32;20060;-74
2022/04/19 09:30:51;;;;;;;14.05;6.90;;;;;;;;;;4404953;32;20030;-74
2022/04/19 09:33:17;;;;;;;12.45;6.53;;;;;;;;;;4392701;32;20023;-73
2022/04/19 09:35:44;;;;;;;10.35;6.35;;;;;;;;;;4390423;32;20052;-73
2022/04/19 09:38:09;;;;;;;10.27;6.12;;;;;;;;;;4404553;32;20117;-74
2022/04/19 09:40:36;;;;;;;11.43;7.12;;;;;;;;;;4405417;32;20052;-74
2022/04/19 09:43:10;;;;;;;12.70;7.15;;;;;;;;;;4392181;32;20031;-74
2022/04/19 09:45:45;;;;;;;10.80;6.62;;;;;;;;;;4404670;32;20428;-73
2022/04/19 09:48:20;;;;;;;12.55;7.62;;;;;;;;;;4404230;32;20487;-74
2022/04/19 09:50:49;;;;;;;10.88;6.97;;;;;;;;;;4403761;32;20087;-73
2022/04/19 09:53:18;;;;;;;10.48;6.93;;;;;;;;;;4377690;32;20502;-72
2022/04/19 09:55:48;;;;;;;10.13;7.03;;;;;;;;;;4398114;32;20061;-73
2022/04/19 09:58:14;;;;;;;10.05;7.28;;;;;;;;;;4389207;32;20485;-73
2022/04/19 10:00:39;;;;;;;12.25;7.47;;;;;;;;;;4404956;32;20058;-73
2022/04/19 10:08:33;;;;;;;10.27;7.05;;;;;;;;;;4403920;32;20064;-74
2022/04/19 10:10:58;;;;;;;14.55;7.82;;;;;;;;;;4404472;32;20146;-74
2022/04/19 10:13:24;;;;;;;11.88;7.90;;;;;;;;;;4404235;32;20379;-74
2022/04/19 10:15:49;;;;;;;13.18;8.10;;;;;;;;;;4405763;32;20132;-73
2022/04/19 10:18:15;;;;;;;11.65;8.23;;;;;;;;;;4390395;32;20068;-74
2022/04/19 10:21:06;;;;;;;14.90;8.25;;;;;;;;;;4405134;32;20426;-73
2022/04/19 10:23:33;;;;;;;13.10;7.97;;;;;;;;;;4401531;32;20043;-73
2022/04/19 10:26:11;;;;;;;12.90;8.00;;;;;;;;;;4405453;32;20035;-73
2022/04/19 10:28:36;;;;;;;14.77;8.07;;;;;;;;;;4392597;32;20473;-73
2022/04/19 10:31:03;;;;;;;12.45;8.25;;;;;;;;;;4402610;32;20022;-72
2022/04/19 10:33:38;;;;;;;14.05;9.05;;;;;;;;;;4392295;32;20041;-73
2022/04/19 10:36:10;;;;;;;14.07;8.07;;;;;;;;;;4408660;32;20031;-73
2022/04/19 10:38:35;;;;;;;12.80;8.15;;;;;;;;;;4404561;32;20372;-74
2022/04/19 10:41:00;;;;;;;12.03;8.53;;;;;;;;;;4406646;32;20027;-74
2022/04/19 10:43:27;;;;;;;11.25;8.10;;;;;;;;;;4393851;32;20114;-73
2022/04/19 10:45:53;;;;;;;11.80;8.52;;;;;;;;;;4405806;32;20134;-73
2022/04/19 10:48:18;;;;;;;14.20;8.55;;;;;;;;;;4408404;32;20113;-73
2022/04/19 10:50:47;;;;;;;11.10;7.35;;;;;;;;;;4404128;32;20492;-73
2022/04/19 10:53:12;;;;;;;14.68;9.65;;;;;;;;;;4393737;32;20106;-74
2022/04/19 10:55:56;;;;;;;15.20;8.85;;;;;;;;;;4406452;32;20057;-74
2022/04/19 10:58:37;;;;;;;14.07;9.10;;;;;;;;;;4405375;32;20168;-74
2022/04/19 11:01:02;;;;;;;13.02;8.25;;;;;;;;;;4399804;32;20055;-73
2022/04/19 11:03:27;;;;;;;20.23;8.55;;;;;;;;;;4391531;32;20023;-73
2022/04/19 11:05:54;;;;;;;12.85;7.53;;;;;;;;;;4395560;32;20405;-73
2022/04/19 11:08:19;;;;;;;12.27;7.55;;;;;;;;;;4392310;32;20147;-74
2022/04/19 11:10:45;;;;;;;14.75;7.60;;;;;;;;;;4407791;32;20030;-74
2022/04/19 11:13:11;;;;;;;13.45;7.20;;;;;;;;;;4404715;32;20178;-73
2022/04/19 11:15:42;;;;;;;15.00;7.30;;;;;;;;;;4406942;32;20416;-73
2022/04/19 11:18:29;;;;;;;10.60;6.62;;;;;;;;;;4400173;32;20392;-72
2022/04/19 11:20:58;;;;;;;9.45;6.95;;;;;;;;;;4391642;32;20073;-72
2022/04/19 11:23:25;;;;;;;10.50;6.32;;;;;;;;;;4394868;32;20026;-72
2022/04/19 11:25:51;;;;;;;8.63;5.97;;;;;;;;;;4393964;32;20137;-72
2022/04/19 11:28:16;;;;;;;11.70;7.10;;;;;;;;;;4405823;32;20421;-72
2022/04/19 11:30:42;;;;;;;10.90;6.57;;;;;;;;;;4393919;32;20022;-72
2022/04/19 11:33:08;;;;;;;11.52;6.35;;;;;;;;;;4392469;32;20045;-72
2022/04/19 11:35:33;;;;;;;11.40;6.22;;;;;;;;;;4406335;32;20049;-72
2022/04/19 11:38:02;;;;;;;10.30;6.70;;;;;;;;;;4407477;32;20454;-72
2022/04/19 11:48:48;;;;;;;12.02;6.32;;;;;;;;;;4406628;32;20053;-73
2022/04/19 11:51:14;;;;;;;9.40;5.90;;;;;;;;;;4406304;32;20051;-72
2022/04/19 11:53:39;;;;;;;9.73;7.12;;;;;;;;;;4405935;32;20575;-72
2022/04/19 11:56:05;;;;;;;10.20;6.80;;;;;;;;;;4407366;32;20396;-73
2022/04/19 11:58:33;;;;;;;8.45;6.28;;;;;;;;;;4407164;32;20153;-73
2022/04/19 12:01:01;;;;;;;8.95;6.55;;;;;;;;;;4392578;32;20021;-78
2022/04/19 12:03:27;;;;;;;12.43;6.03;;;;;;;;;;4404666;32;20074;-72
2022/04/19 12:05:53;;;;;;;10.90;6.68;;;;;;;;;;4406084;32;20038;-72
2022/04/19 12:08:28;;;;;;;9.90;6.72;;;;;;;;;;4391030;32;20424;-72
2022/04/19 12:10:54;;;;;;;9.52;7.00;;;;;;;;;;4392563;32;20053;-72
2022/04/19 12:13:19;;;;;;;9.30;6.25;;;;;;;;;;4392214;32;20069;-71
2022/04/19 12:15:44;;;;;;;11.38;7.75;;;;;;;;;;4391813;32;20436;-72
2022/04/19 12:18:10;;;;;;;9.67;6.03;;;;;;;;;;4391825;32;20058;-73
2022/04/19 12:20:42;;;;;;;10.48;7.12;;;;;;;;;;4391751;32;20524;-71
2022/04/19 12:23:25;;;;;;;13.25;7.00;;;;;;;;;;4386669;32;20103;-71
2022/04/19 12:26:07;;;;;;;9.75;6.60;;;;;;;;;;4407125;32;20082;-72
2022/04/19 12:28:41;;;;;;;11.35;6.65;;;;;;;;;;4404978;32;20330;-72
2022/04/19 12:31:07;;;;;;;9.60;6.68;;;;;;;;;;4405729;32;20026;-71
2022/04/19 12:33:34;;;;;;;9.40;5.32;;;;;;;;;;4405440;32;20105;-71
2022/04/19 12:36:00;;;;;;;9.68;6.22;;;;;;;;;;4406138;32;20479;-72
2022/04/19 12:38:29;;;;;;;10.98;6.85;;;;;;;;;;4405242;32;20046;-72
2022/04/19 12:40:54;;;;;;;9.25;5.97;;;;;;;;;;4405753;32;20356;-72
2022/04/19 12:43:19;;;;;;;8.45;6.20;;;;;;;;;;4405682;32;20467;-71
2022/04/19 12:45:46;;;;;;;8.93;6.53;;;;;;;;;;4405898;32;20450;-72
2022/04/19 12:48:21;;;;;;;8.35;6.10;;;;;;;;;;4405657;32;20061;-72
2022/04/19 12:50:46;;;;;;;9.82;6.28;;;;;;;;;;4406272;32;20030;-72
2022/04/19 12:53:24;;;;;;;8.18;5.60;;;;;;;;;;4404469;32;20026;-72
2022/04/19 12:55:49;;;;;;;10.70;6.28;;;;;;;;;;4404207;32;20022;-72
2022/04/19 12:58:14;;;;;;;10.57;5.65;;;;;;;;;;4406886;32;20081;-73
2022/04/19 13:00:39;;;;;;;10.93;5.28;;;;;;;;;;4404511;32;20030;-73
2022/04/19 13:03:05;;;;;;;10.27;5.50;;;;;;;;;;4404535;32;20136;-72
2022/04/19 13:13:42;;;;;;;7.93;5.70;;;;;;;;;;4405582;32;20063;-72
2022/04/19 13:16:07;;;;;;;12.27;6.40;;;;;;;;;;4390873;32;20382;-72
2022/04/19 13:18:33;;;;;;;11.25;5.85;;;;;;;;;;4405055;32;20149;-73
2022/04/19 13:20:58;;;;;;;9.93;6.28;;;;;;;;;;4404579;32;20025;-72
2022/04/19 13:23:24;;;;;;;13.03;7.90;;;;;;;;;;4391109;32;20094;-72
2022/04/19 13:25:49;;;;;;;11.73;7.70;;;;;;;;;;4397925;32;20572;-74
2022/04/19 13:28:14;;;;;;;13.73;8.32;;;;;;;;;;4388335;32;20034;-72
2022/04/19 13:30:40;;;;;;;14.82;8.55;;;;;;;;;;4391740;32;20054;-72
2022/04/19 13:33:05;;;;;;;12.98;8.18;;;;;;;;;;4390333;32;20022;-72
2022/04/19 13:35:31;;;;;;;18.42;9.25;;;;;;;;;;4405389;32;20425;-74
2022/04/19 13:40:40;;;;;;;16.90;9.43;;;;;;;;;;4406253;32;20176;-72
2022/04/19 13:43:05;;;;;;;14.57;9.10;;;;;;;;;;4405174;32;20039;-72
2022/04/19 13:45:33;;;;;;;17.07;9.63;;;;;;;;;;4389713;32;20042;-74
2022/04/19 13:47:58;;;;;;;13.85;8.95;;;;;;;;;;4389749;32;20467;-73
2022/04/19 13:50:24;;;;;;;15.15;9.35;;;;;;;;;;4400983;32;20026;-74
2022/04/19 13:52:49;;;;;;;14.10;9.35;;;;;;;;;;4404278;32;20079;-73
2022/04/19 13:55:18;;;;;;;17.45;10.35;;;;;;;;;;4379196;32;20102;-71
2022/04/19 13:57:43;;;;;;;15.13;9.93;;;;;;;;;;4401831;32;20034;-73
2022/04/19 14:00:09;;;;;;;17.48;10.82;;;;;;;;;;4404702;32;20018;-71
2022/04/19 14:02:34;;;;;;;18.17;9.15;;;;;;;;;;4404814;32;20306;-72
2022/04/19 14:05:00;;;;;;;16.60;9.98;;;;;;;;;;4404867;32;20390;-72
2022/04/19 14:07:25;;;;;;;16.00;9.50;;;;;;;;;;4405957;32;20072;-72
2022/04/19 14:09:50;;;;;;;14.77;9.37;;;;;;;;;;4406348;32;20034;-72
2022/04/19 14:12:15;;;;;;;14.32;8.57;;;;;;;;;;4392663;32;20486;-72
2022/04/19 14:14:42;;;;;;;15.83;9.70;;;;;;;;;;4407023;32;20076;-72
2022/04/19 14:17:08;;;;;;;15.88;10.68;;;;;;;;;;4392613;32;20236;-72
2022/04/19 14:19:33;;;;;;;17.75;10.43;;;;;;;;;;4408059;32;20026;-72
2022/04/19 14:21:58;;;;;;;21.62;10.45;;;;;;;;;;4408340;32;20069;-73
2022/04/19 14:24:24;;;;;;;17.05;9.35;;;;;;;;;;4405939;32;20064;-72
2022/04/19 14:26:49;;;;;;;13.65;9.05;;;;;;;;;;4404317;32;20482;-73
2022/04/19 14:34:43;;;;;;;14.77;9.30;;;;;;;;;;4408327;32;20090;-72
2022/04/19 14:37:08;;;;;;;14.00;9.18;;;;;;;;;;4392927;32;20027;-71
2022/04/19 14:39:33;;;;;;;14.77;9.07;;;;;;;;;;4392678;32;20034;-72
2022/04/19 14:41:59;;;;;;;15.55;8.75;;;;;;;;;;4406258;32;20031;-72
2022/04/19 14:44:24;;;;;;;17.15;8.73;;;;;;;;;;4393452;32;20140;-73
2022/04/19 14:46:49;;;;;;;13.60;7.40;;;;;;;;;;4406376;32;20054;-73
2022/04/19 14:49:14;;;;;;;13.82;7.15;;;;;;;;;;4393380;32;20146;-72
2022/04/19 14:54:24;;;;;;;12.88;7.43;;;;;;;;;;4408314;32;20176;-73
2022/04/19 14:56:49;;;;;;;11.32;7.68;;;;;;;;;;4391335;32;20134;-73
2022/04/19 14:59:14;;;;;;;11.68;6.85;;;;;;;;;;4392710;32;20018;-73
2022/04/19 15:01:39;;;;;;;11.90;7.53;;;;;;;;;;4392645;32;20154;-73
2022/04/19 15:04:05;;;;;;;8.50;6.53;;;;;;;;;;4406813;32;20023;-72
2022/04/19 15:06:30;;;;;;;9.82;6.03;;;;;;;;;;4394341;32;20026;-72
2022/04/19 15:08:55;;;;;;;10.90;6.82;;;;;;;;;;4406192;32;20213;-72
2022/04/19 15:11:21;;;;;;;9.95;6.57;;;;;;;;;;4406213;32;20026;-72
2022/04/19 15:13:46;;;;;;;12.02;6.05;;;;;;;;;;4405920;32;20042;-72
2022/04/19 15:16:12;;;;;;;9.88;5.55;;;;;;;;;;4390837;32;20030;-72
2022/04/19 15:18:37;;;;;;;8.10;5.40;;;;;;;;;;4392799;32;20052;-72
2022/04/19 15:21:03;;;;;;;8.70;5.55;;;;;;;;;;4405618;32;20044;-73
2022/04/19 15:23:28;;;;;;;9.43;5.43;;;;;;;;;;4392031;32;20053;-73
2022/04/19 15:25:54;;;;;;;8.30;5.03;;;;;;;;;;4406024;32;20026;-73
2022/04/19 15:28:19;;;;;;;9.05;5.15;;;;;;;;;;4392919;32;20134;-72
2022/04/19 15:30:45;;;;;;;9.00;4.72;;;;;;;;;;4392854;32;20078;-73
2022/04/19 15:33:12;;;;;;;14.73;5.20;;;;;;;;;;4393684;32;20045;-72
2022/04/19 15:35:37;;;;;;;7.40;5.07;;;;;;;;;;4408054;32;20026;-73
2022/04/19 15:38:03;;;;;;;7.15;4.47;;;;;;;;;;4393026;32;20022;-72
2022/04/19 15:40:28;;;;;;;8.07;5.22;;;;;;;;;;4393848;32;20048;-74
2022/04/19 15:42:53;;;;;;;11.60;5.37;;;;;;;;;;4390990;32;20442;-73
2022/04/19 15:45:19;;;;;;;7.75;5.12;;;;;;;;;;4388848;32;20035;-74
2022/04/19 15:47:45;;;;;;;11.00;5.62;;;;;;;;;;4391160;32;20064;-73
2022/04/19 15:50:12;;;;;;;8.07;5.10;;;;;;;;;;4406979;32;20026;-75
2022/04/19 15:52:37;;;;;;;8.57;5.45;;;;;;;;;;4392719;32;20018;-75